Omaha, NE (68116)

4:01 PM CDT on July 26, 2016 (GMT -0500)
APRSWXNET | | Change Station

Elev 1210 ft 41.30 °N, 96.15 °W | Updated 34 minutes ago

Clear
Clear
86 °F
Feels Like 86 °F
N
0
Wind Variable Wind from North
Gusts 0.0 mph

Today
High -- | Low -- °F
--% Chance of Precip.
Yesterday
High -- | Low -- °F
Precip. -- in
Pressure 30.02 in
Visibility 10.0 miles
Clouds Clear
Heat Index 86 °F
Dew Point 60 °F
Humidity 42%
Rainfall in
Snow Depth Not available.
6:14 AM 8:47 PM
Waning Gibbous, 51% visible
METAR KMLE 262055Z AUTO 15005KT 10SM CLR 30/18 A3002 RMK AO2 T02990177
Pressure 30.02 in
Visibility 10.0 miles
Clouds Clear
Heat Index 86 °F
Dew Point 60 °F
Humidity 42%
Rainfall in
Snow Depth Not available.
6:14 AM 8:47 PM
Waning Gibbous, 51% visible
METAR KMLE 262055Z AUTO 15005KT 10SM CLR 30/18 A3002 RMK AO2 T02990177

10-Day Weather Forecast

Almanac

Astronomy

Jul. 26, 2016 Rise Set
Actual Time
Civil Twilight
Nautical Twilight
Astronomical Twilight
Moon
Length of Visible Light
Length of Day
Tomorrow will be .
, % of the Moon is Illuminated

Today's Extremes

State Highs State Lows

Community

WunderPhotos

Upload Photos

1,927,688 photos uploaded!

WunderBlog® & News

Nearby

Air Quality

  Air Quality AQ Index Pollutant
Not available.

Snow Depth

Station Depth Elevation

Earthquake Activity

City Distance Mag. Time & Date
Minimum magnitude displayed is 2.5.

Coastal Water Temperatures

Place Temperature

Stations

Nearby Weather Stations

Station Location Temp. Windchill Dew Point Humidity Wind Precip. Elev Updated Type
                   

Watches & Warnings

There are currently no watches in effect.